createdAt,value
2022-10-17T00:03:49.056Z,1.18
2022-10-17T00:18:48.770Z,1.02
2022-10-17T00:33:48.618Z,0.81
2022-10-17T00:48:49.185Z,0.82
2022-10-17T01:03:50.704Z,0.96
2022-10-17T01:18:48.964Z,0.91
2022-10-17T01:33:48.645Z,0.66
2022-10-17T01:48:48.716Z,0.84
2022-10-17T02:03:48.620Z,0.68
2022-10-17T02:18:48.580Z,0.9
2022-10-17T02:33:48.523Z,0.61
2022-10-17T02:48:48.631Z,0.7
2022-10-17T03:03:48.679Z,0.73
2022-10-17T03:18:49.415Z,0.73
2022-10-17T03:33:48.812Z,0.62
2022-10-17T03:48:49.014Z,0.75
2022-10-17T04:03:49.241Z,1.01
2022-10-17T04:18:48.636Z,1.11
2022-10-17T04:33:48.980Z,0.96
2022-10-17T04:48:49.097Z,1.11
2022-10-17T05:18:52.489Z,1.84
2022-10-17T05:33:48.862Z,3.14
2022-10-17T05:48:49.324Z,1.85
2022-10-17T06:03:48.761Z,1.44
2022-10-17T06:33:48.959Z,3.08
2022-10-17T06:48:49.230Z,4.68
2022-10-17T07:03:48.935Z,1.46
2022-10-17T07:18:48.637Z,0.58
2022-10-17T07:33:48.997Z,0.82
2022-10-17T07:48:49.068Z,1.19
2022-10-17T08:03:48.701Z,0.84
2022-10-17T08:33:48.997Z,0.33
2022-10-17T08:48:49.270Z,0.25
2022-10-17T09:03:48.809Z,0.23
2022-10-17T09:18:49.094Z,0.15
2022-10-17T09:33:54.127Z,0.1
2022-10-17T10:03:49.469Z,0.14
2022-10-17T10:18:50.206Z,0.01
2022-10-17T10:48:49.912Z,0.4
2022-10-17T13:33:49.890Z,0.79
2022-10-17T14:03:54.129Z,4.65
2022-10-17T14:18:49.778Z,0.85
2022-10-17T14:33:50.396Z,0.51
2022-10-17T14:48:49.116Z,0.97
2022-10-17T15:03:48.866Z,0.94
2022-10-17T15:18:48.981Z,1.63
2022-10-17T15:33:48.922Z,0.99
2022-10-17T15:48:48.723Z,1.2
2022-10-17T16:03:49.325Z,1.99
2022-10-17T16:18:49.267Z,2.28
2022-10-17T16:33:49.065Z,4.93
2022-10-17T16:48:49.144Z,6.29
2022-10-17T17:03:49.267Z,12.06
2022-10-17T17:18:49.671Z,10.52
2022-10-17T17:33:48.578Z,21.14
2022-10-17T17:48:49.256Z,8.27
2022-10-17T18:03:49.295Z,10.79
2022-10-17T18:18:49.405Z,10.22
2022-10-17T18:33:49.194Z,6.54
2022-10-17T18:48:49.340Z,3.23
2022-10-17T19:18:49.164Z,5.67
2022-10-17T19:33:49.225Z,5.24
2022-10-17T19:48:48.951Z,5.31
2022-10-17T20:03:49.371Z,5.37
2022-10-17T20:18:49.145Z,4.25
2022-10-17T20:33:48.970Z,5.64
2022-10-17T20:48:49.328Z,4.18
2022-10-17T21:03:48.981Z,4.29
2022-10-17T21:18:48.905Z,5.76
2022-10-17T21:33:48.965Z,4.5
2022-10-17T21:48:49.317Z,4.78
2022-10-17T22:03:49.144Z,3.21
2022-10-17T22:33:49.129Z,2.12
2022-10-17T22:48:49.962Z,8.35
2022-10-17T23:03:49.307Z,3.39
2022-10-17T23:18:48.531Z,2.24
2022-10-17T23:33:48.672Z,2.16
2022-10-17T23:48:49.001Z,1.91
